createdAt,value
2018-06-09T00:00:52.048Z,20.20
2018-06-09T00:03:22.214Z,20.20
2018-06-09T00:05:52.462Z,20.10
2018-06-09T00:08:22.731Z,20.10
2018-06-09T00:10:52.879Z,20.10
2018-06-09T00:13:23.183Z,20.10
2018-06-09T00:15:53.338Z,20.00
2018-06-09T00:18:23.775Z,20.00
2018-06-09T00:20:54.179Z,20.00
2018-06-09T00:23:24.438Z,19.90
2018-06-09T00:25:54.583Z,20.00
2018-06-09T00:28:24.840Z,20.00
2018-06-09T00:30:54.991Z,20.10
2018-06-09T00:33:25.350Z,20.10
2018-06-09T00:35:55.636Z,20.10
2018-06-09T00:38:25.851Z,20.00
2018-06-09T00:40:56.006Z,20.00
2018-06-09T00:43:26.311Z,20.00
2018-06-09T00:45:56.443Z,20.00
2018-06-09T00:48:26.736Z,20.00
2018-06-09T00:50:59.873Z,19.90
2018-06-09T00:53:30.191Z,19.90
2018-06-09T00:56:17.350Z,20.00
2018-06-09T00:58:47.627Z,20.10
2018-06-09T01:01:17.808Z,20.10
2018-06-09T01:03:48.074Z,20.20
2018-06-09T01:06:18.210Z,20.30
2018-06-09T01:08:48.480Z,20.20
2018-06-09T01:11:18.763Z,20.20
2018-06-09T01:13:48.915Z,20.30
2018-06-09T01:16:19.163Z,20.30
2018-06-09T01:18:49.403Z,20.20
2018-06-09T01:21:19.679Z,20.20
2018-06-09T01:23:49.843Z,20.10
2018-06-09T01:26:20.100Z,20.00
2018-06-09T01:28:50.250Z,20.00
2018-06-09T01:31:20.498Z,20.00
2018-06-09T01:33:50.666Z,19.90
2018-06-09T01:36:20.946Z,19.90
2018-06-09T01:38:51.098Z,19.80
2018-06-09T01:41:21.376Z,19.80
2018-06-09T01:43:51.536Z,19.90
2018-06-09T01:46:21.807Z,20.10
2018-06-09T01:48:52.018Z,20.30
2018-06-09T01:51:22.306Z,20.40
2018-06-09T01:53:52.493Z,20.40
2018-06-09T01:56:23.032Z,20.50
2018-06-09T01:58:53.193Z,20.50
2018-06-09T02:01:23.461Z,20.50
2018-06-09T02:03:53.723Z,20.60
2018-06-09T02:06:23.979Z,20.60
2018-06-09T02:08:54.225Z,20.60
2018-06-09T02:11:24.362Z,20.50
2018-06-09T02:13:54.616Z,20.50
2018-06-09T02:16:24.787Z,20.50
2018-06-09T02:18:55.126Z,20.50
2018-06-09T02:21:25.271Z,20.40
2018-06-09T02:23:55.506Z,20.30
2018-06-09T02:26:25.665Z,20.30
2018-06-09T02:28:55.931Z,20.30
2018-06-09T02:31:26.099Z,20.30
2018-06-09T02:33:56.371Z,20.20
2018-06-09T02:36:26.518Z,20.10
2018-06-09T02:38:56.774Z,20.10
2018-06-09T02:41:26.926Z,20.10
2018-06-09T02:43:57.184Z,20.10
2018-06-09T02:46:27.315Z,20.10
2018-06-09T02:48:57.575Z,20.10
2018-06-09T02:51:27.718Z,20.10
2018-06-09T02:53:57.948Z,20.20
2018-06-09T02:56:28.391Z,20.20
2018-06-09T02:58:58.723Z,20.20
2018-06-09T03:01:28.891Z,20.20
2018-06-09T03:03:59.146Z,20.30
2018-06-09T03:06:29.299Z,20.30
2018-06-09T03:08:59.538Z,20.30
2018-06-09T03:11:29.819Z,20.40
2018-06-09T03:13:59.964Z,20.50
2018-06-09T03:16:30.264Z,20.50
2018-06-09T03:19:00.501Z,20.50
2018-06-09T03:21:30.747Z,20.60
2018-06-09T03:24:00.891Z,20.60
2018-06-09T03:26:31.145Z,20.70
2018-06-09T03:29:01.291Z,20.70
2018-06-09T03:31:31.547Z,20.70
2018-06-09T03:34:01.761Z,20.80
2018-06-09T03:36:31.996Z,20.90
2018-06-09T03:39:02.151Z,20.90
2018-06-09T03:41:32.442Z,21.00
2018-06-09T03:44:02.631Z,21.10
2018-06-09T03:46:32.894Z,21.10
2018-06-09T03:49:03.038Z,21.20
2018-06-09T03:51:33.360Z,21.30
2018-06-09T03:54:03.499Z,21.30
2018-06-09T03:56:33.747Z,21.40
2018-06-09T03:59:03.875Z,21.40
2018-06-09T04:01:34.131Z,21.50
2018-06-09T04:04:04.282Z,21.50
2018-06-09T04:06:34.586Z,21.40
2018-06-09T04:09:07.155Z,21.40
2018-06-09T04:11:37.501Z,21.50
2018-06-09T04:14:07.642Z,21.40
2018-06-09T04:16:37.904Z,21.40
2018-06-09T04:19:08.231Z,21.50
2018-06-09T04:21:38.482Z,21.50
2018-06-09T04:24:08.723Z,21.50
2018-06-09T04:26:38.924Z,21.50
2018-06-09T04:29:09.166Z,21.50
2018-06-09T04:31:39.308Z,21.60
2018-06-09T04:34:09.559Z,21.60
2018-06-09T04:36:39.702Z,21.70
2018-06-09T04:39:09.939Z,21.80
2018-06-09T04:41:40.090Z,21.80
2018-06-09T04:44:10.347Z,21.90
2018-06-09T04:46:40.495Z,22.00
2018-06-09T04:49:10.739Z,22.10
2018-06-09T04:51:40.878Z,22.20
2018-06-09T04:54:11.141Z,22.40
2018-06-09T04:56:41.290Z,22.40
2018-06-09T04:59:11.530Z,22.50
2018-06-09T05:01:41.662Z,22.80
2018-06-09T05:04:11.935Z,23.40
2018-06-09T05:06:42.108Z,24.00
2018-06-09T05:09:12.401Z,24.40
2018-06-09T05:11:42.545Z,24.30
2018-06-09T05:14:12.774Z,23.90
2018-06-09T05:16:43.016Z,23.40
2018-06-09T05:19:13.247Z,23.10
2018-06-09T05:21:43.490Z,22.60
2018-06-09T05:24:13.643Z,22.20
2018-06-09T05:26:43.959Z,21.90
2018-06-09T05:29:14.117Z,21.70
2018-06-09T05:31:44.379Z,21.60
2018-06-09T05:34:14.534Z,21.60
2018-06-09T05:36:44.800Z,21.60
2018-06-09T05:39:14.950Z,21.60
2018-06-09T05:41:45.215Z,21.60
2018-06-09T05:44:15.367Z,21.30
2018-06-09T05:46:45.634Z,21.30
2018-06-09T05:49:15.802Z,21.20
2018-06-09T05:51:46.065Z,21.10
2018-06-09T05:54:16.191Z,21.00
2018-06-09T05:56:46.458Z,21.00
2018-06-09T05:59:16.609Z,21.10
2018-06-09T06:01:46.933Z,21.00
2018-06-09T06:04:17.222Z,21.10
2018-06-09T06:06:47.523Z,21.10
2018-06-09T06:09:17.806Z,21.00
2018-06-09T06:11:47.951Z,21.00
2018-06-09T06:14:18.182Z,21.00
2018-06-09T06:16:48.331Z,21.00
2018-06-09T06:19:18.656Z,20.90
2018-06-09T06:21:48.804Z,20.90
2018-06-09T06:24:19.034Z,20.90
2018-06-09T06:26:49.187Z,20.90
2018-06-09T06:29:19.410Z,21.00
2018-06-09T06:31:49.622Z,21.00
2018-06-09T06:34:19.822Z,20.90
2018-06-09T06:36:49.950Z,20.90
2018-06-09T06:39:20.187Z,20.90
2018-06-09T06:41:50.358Z,20.80
2018-06-09T06:44:20.598Z,20.80
2018-06-09T06:46:50.755Z,21.00
2018-06-09T06:49:20.983Z,21.00
2018-06-09T06:51:51.131Z,21.00
2018-06-09T06:54:21.435Z,21.20
2018-06-09T06:56:51.579Z,21.20
2018-06-09T06:59:21.843Z,21.30
2018-06-09T07:01:51.986Z,21.40
2018-06-09T07:04:22.255Z,21.40
2018-06-09T07:06:52.416Z,21.50
2018-06-09T07:09:22.676Z,21.50
2018-06-09T07:11:52.961Z,21.60
2018-06-09T07:14:23.126Z,21.70
2018-06-09T07:16:53.379Z,21.80
2018-06-09T07:19:23.647Z,21.80
2018-06-09T07:21:53.907Z,21.90
2018-06-09T07:24:24.107Z,21.80
2018-06-09T07:26:54.367Z,21.90
2018-06-09T07:29:24.506Z,21.80
2018-06-09T07:31:54.779Z,22.00
2018-06-09T07:34:24.943Z,21.90
2018-06-09T07:36:55.224Z,21.80
2018-06-09T07:39:25.375Z,21.80
2018-06-09T07:41:55.671Z,21.90
2018-06-09T07:44:25.834Z,22.10
2018-06-09T07:46:56.100Z,22.20
2018-06-09T07:49:26.241Z,22.30
2018-06-09T07:51:56.507Z,22.30
2018-06-09T07:54:26.667Z,22.60
2018-06-09T07:56:56.939Z,22.50
2018-06-09T07:59:27.107Z,22.60
2018-06-09T08:01:57.366Z,22.80
2018-06-09T08:04:27.510Z,22.60
2018-06-09T08:06:57.845Z,22.70
2018-06-09T08:09:28.142Z,23.00
2018-06-09T08:11:58.294Z,23.10
2018-06-09T08:14:28.519Z,23.40
2018-06-09T08:16:58.713Z,23.40
2018-06-09T08:19:29.150Z,23.50
2018-06-09T08:21:59.250Z,23.30
2018-06-09T08:24:29.494Z,23.50
2018-06-09T08:26:59.664Z,23.70
2018-06-09T08:29:29.910Z,23.90
2018-06-09T08:32:00.075Z,23.70
2018-06-09T08:34:30.319Z,23.80
2018-06-09T08:37:00.491Z,23.90
2018-06-09T08:39:30.767Z,24.20
2018-06-09T08:42:00.913Z,24.20
2018-06-09T08:44:31.118Z,24.40
2018-06-09T08:47:01.298Z,24.90
2018-06-09T08:49:31.576Z,25.00
2018-06-09T08:52:01.831Z,25.20
2018-06-09T08:54:31.983Z,25.50
2018-06-09T08:57:02.231Z,25.60
2018-06-09T08:59:32.416Z,25.80
2018-06-09T09:02:02.671Z,26.10
2018-06-09T09:04:32.810Z,26.50
2018-06-09T09:07:03.046Z,26.70
2018-06-09T09:09:33.193Z,26.70
2018-06-09T09:12:03.444Z,26.10
2018-06-09T09:14:33.600Z,26.20
2018-06-09T09:17:03.883Z,26.50
2018-06-09T09:19:34.178Z,26.70
2018-06-09T09:22:04.465Z,26.70
2018-06-09T09:24:34.631Z,26.40
2018-06-09T09:27:04.915Z,26.30
2018-06-09T09:29:35.167Z,26.50
2018-06-09T09:32:05.451Z,26.70
2018-06-09T09:34:35.666Z,26.50
2018-06-09T09:37:05.814Z,26.50
2018-06-09T09:39:36.117Z,26.40
2018-06-09T09:42:06.318Z,26.50
2018-06-09T09:44:36.622Z,26.70
2018-06-09T09:47:06.797Z,27.00
2018-06-09T09:49:37.100Z,27.10
2018-06-09T09:52:07.297Z,27.10
2018-06-09T09:54:37.559Z,27.20
2018-06-09T09:57:07.771Z,27.50
2018-06-09T09:59:38.004Z,27.60
2018-06-09T10:02:08.151Z,27.70
2018-06-09T10:04:38.400Z,28.00
2018-06-09T10:07:08.563Z,28.30
2018-06-09T10:09:38.811Z,28.30
2018-06-09T10:12:08.958Z,28.30
2018-06-09T10:14:39.251Z,27.80
2018-06-09T10:17:09.427Z,27.80
2018-06-09T10:19:39.774Z,27.90
2018-06-09T10:22:09.908Z,27.90
2018-06-09T10:24:40.232Z,28.10
2018-06-09T10:27:10.374Z,28.00
2018-06-09T10:29:40.696Z,28.00
2018-06-09T10:32:10.870Z,27.90
2018-06-09T10:34:41.140Z,27.90
2018-06-09T10:37:11.318Z,28.10
2018-06-09T10:39:41.543Z,28.00
2018-06-09T10:42:11.847Z,28.10
2018-06-09T10:44:41.999Z,28.30
2018-06-09T10:47:12.242Z,28.40
2018-06-09T10:49:42.406Z,28.40
2018-06-09T10:52:12.666Z,28.50
2018-06-09T10:54:42.814Z,28.70
2018-06-09T10:57:13.087Z,28.60
2018-06-09T10:59:43.254Z,28.70
2018-06-09T11:02:13.527Z,29.00
2018-06-09T11:04:43.690Z,29.20
2018-06-09T11:07:13.939Z,29.30
2018-06-09T11:09:44.094Z,29.10
2018-06-09T11:12:14.363Z,29.30
2018-06-09T11:14:44.746Z,29.30
2018-06-09T11:17:15.082Z,29.10
2018-06-09T11:19:45.467Z,29.20
2018-06-09T11:22:15.733Z,29.10
2018-06-09T11:24:45.982Z,29.40
2018-06-09T11:27:16.152Z,29.80
2018-06-09T11:29:46.395Z,29.70
2018-06-09T11:32:16.592Z,29.80
2018-06-09T11:34:46.850Z,29.70
2018-06-09T11:37:17.080Z,29.90
2018-06-09T11:39:47.341Z,29.30
2018-06-09T11:42:17.487Z,29.40
2018-06-09T11:44:47.813Z,29.60
2018-06-09T11:47:17.954Z,29.50
2018-06-09T11:49:48.171Z,29.70
2018-06-09T11:52:18.351Z,30.00
2018-06-09T11:54:48.614Z,29.90
2018-06-09T11:57:18.778Z,29.90
2018-06-09T11:59:49.076Z,30.00
2018-06-09T12:02:19.218Z,30.00
2018-06-09T12:04:49.448Z,30.00
2018-06-09T12:07:19.690Z,29.60
2018-06-09T12:09:49.862Z,29.50
2018-06-09T12:12:20.123Z,29.60
2018-06-09T12:14:50.264Z,29.90
2018-06-09T12:17:20.668Z,30.10
2018-06-09T12:19:50.890Z,30.00
2018-06-09T12:22:21.131Z,29.60
2018-06-09T12:24:51.293Z,29.40
2018-06-09T12:27:21.541Z,29.20
2018-06-09T12:29:51.674Z,29.30
2018-06-09T12:32:22.023Z,29.40
2018-06-09T12:34:52.177Z,29.40
2018-06-09T12:37:22.439Z,29.30
2018-06-09T12:39:52.598Z,29.20
2018-06-09T12:42:22.906Z,29.50
2018-06-09T12:44:53.088Z,29.90
2018-06-09T12:47:23.375Z,29.80
2018-06-09T12:49:53.536Z,30.00
2018-06-09T12:52:23.807Z,30.20
2018-06-09T12:54:54.107Z,30.40
2018-06-09T12:57:24.241Z,30.50
2018-06-09T12:59:54.498Z,30.20
2018-06-09T13:02:24.651Z,30.40
2018-06-09T13:04:54.894Z,30.70
2018-06-09T13:07:25.035Z,30.80
2018-06-09T13:09:55.283Z,30.50
2018-06-09T13:12:25.446Z,30.80
2018-06-09T13:14:55.743Z,30.80
2018-06-09T13:17:25.898Z,30.90
2018-06-09T13:19:56.301Z,30.90
2018-06-09T13:22:26.462Z,30.80
2018-06-09T13:24:56.716Z,30.60
2018-06-09T13:27:26.883Z,30.60
2018-06-09T13:29:57.264Z,30.70
2018-06-09T13:32:27.418Z,30.70
2018-06-09T13:34:57.663Z,30.20
2018-06-09T13:37:27.795Z,30.50
2018-06-09T13:39:58.045Z,30.70
2018-06-09T13:42:28.187Z,30.60
2018-06-09T13:44:58.458Z,30.50
2018-06-09T13:47:28.616Z,30.60
2018-06-09T13:49:58.847Z,30.60
2018-06-09T13:52:28.990Z,30.20
2018-06-09T13:54:59.282Z,30.10
2018-06-09T13:57:29.419Z,30.10
2018-06-09T13:59:59.699Z,30.00
2018-06-09T14:02:29.872Z,30.30
2018-06-09T14:05:00.127Z,30.70
2018-06-09T14:07:30.286Z,30.50
2018-06-09T14:10:00.569Z,30.50
2018-06-09T14:12:30.810Z,30.40
2018-06-09T14:15:00.987Z,30.70
2018-06-09T14:17:31.242Z,30.40
2018-06-09T14:20:01.495Z,30.40
2018-06-09T14:22:31.787Z,30.60
2018-06-09T14:25:01.934Z,30.60
2018-06-09T14:27:32.188Z,30.70
2018-06-09T14:30:02.339Z,30.70
2018-06-09T14:32:32.599Z,30.70
2018-06-09T14:35:02.744Z,30.50
2018-06-09T14:37:33.010Z,30.30
2018-06-09T14:40:03.155Z,30.50
2018-06-09T14:42:33.427Z,30.30
2018-06-09T14:45:03.567Z,30.70
2018-06-09T14:47:33.815Z,30.70
2018-06-09T14:50:04.067Z,30.80
2018-06-09T14:52:34.358Z,30.70
2018-06-09T14:55:04.495Z,30.60
2018-06-09T14:57:34.734Z,30.50
2018-06-09T15:00:04.894Z,30.40
2018-06-09T15:02:35.176Z,29.80
2018-06-09T15:05:05.326Z,29.60
2018-06-09T15:07:35.591Z,29.30
2018-06-09T15:10:05.834Z,29.60
2018-06-09T15:12:35.968Z,29.60
2018-06-09T15:15:06.219Z,29.30
2018-06-09T15:17:36.392Z,29.20
2018-06-09T15:20:06.719Z,29.30
2018-06-09T15:22:36.908Z,29.30
2018-06-09T15:25:07.123Z,29.20
2018-06-09T15:27:37.258Z,29.20
2018-06-09T15:30:07.507Z,29.40
2018-06-09T15:32:37.647Z,29.30
2018-06-09T15:35:07.898Z,29.10
2018-06-09T15:37:38.042Z,29.00
2018-06-09T15:40:08.418Z,29.00
2018-06-09T15:42:38.547Z,29.20
2018-06-09T15:45:08.776Z,29.10
2018-06-09T15:47:38.918Z,28.90
2018-06-09T15:50:09.175Z,28.80
2018-06-09T15:52:39.323Z,28.80
2018-06-09T15:55:09.579Z,28.80
2018-06-09T15:57:39.719Z,28.80
2018-06-09T16:00:10.008Z,28.90
2018-06-09T16:02:40.182Z,28.90
2018-06-09T16:05:10.422Z,29.00
2018-06-09T16:07:47.235Z,28.80
2018-06-09T16:10:17.431Z,28.70
2018-06-09T16:12:47.674Z,28.60
2018-06-09T16:15:17.831Z,28.60
2018-06-09T16:17:48.079Z,28.70
2018-06-09T16:20:18.318Z,28.60
2018-06-09T16:22:48.570Z,28.50
2018-06-09T16:25:18.731Z,28.40
2018-06-09T16:27:48.983Z,28.30
2018-06-09T16:30:19.163Z,28.20
2018-06-09T16:32:49.425Z,28.10
2018-06-09T16:35:19.568Z,28.10
2018-06-09T16:37:49.823Z,28.00
2018-06-09T16:40:19.984Z,27.90
2018-06-09T16:42:50.222Z,27.80
2018-06-09T16:45:20.426Z,27.80
2018-06-09T16:47:50.678Z,27.80
2018-06-09T16:50:20.827Z,27.70
2018-06-09T16:52:51.094Z,27.50
2018-06-09T16:55:21.241Z,27.50
2018-06-09T16:57:51.524Z,27.30
2018-06-09T17:00:21.690Z,27.10
2018-06-09T17:02:51.958Z,27.10
2018-06-09T17:05:22.166Z,27.10
2018-06-09T17:07:52.484Z,26.90
2018-06-09T17:10:22.627Z,26.90
2018-06-09T17:12:52.869Z,26.80
2018-06-09T17:15:23.149Z,26.70
2018-06-09T17:17:53.295Z,26.60
2018-06-09T17:20:23.627Z,26.50
2018-06-09T17:22:53.778Z,26.50
2018-06-09T17:25:24.000Z,26.50
2018-06-09T17:27:54.138Z,26.40
2018-06-09T17:30:24.375Z,26.30
2018-06-09T17:32:54.524Z,26.30
2018-06-09T17:35:24.752Z,26.30
2018-06-09T17:37:54.928Z,26.30
2018-06-09T17:40:25.150Z,26.30
2018-06-09T17:42:55.309Z,26.30
2018-06-09T17:45:25.551Z,26.30
2018-06-09T17:47:55.725Z,26.30
2018-06-09T17:50:25.969Z,26.40
2018-06-09T17:52:56.678Z,26.30
2018-06-09T17:55:26.917Z,26.20
2018-06-09T17:57:57.078Z,26.20
2018-06-09T18:00:27.370Z,26.20
2018-06-09T18:02:57.539Z,26.10
2018-06-09T18:05:27.825Z,26.10
2018-06-09T18:07:59.088Z,26.00
2018-06-09T18:10:29.222Z,25.90
2018-06-09T18:12:59.518Z,25.90
2018-06-09T18:15:29.663Z,25.80
2018-06-09T18:18:00.021Z,25.70
2018-06-09T18:20:30.274Z,25.60
2018-06-09T18:23:00.561Z,25.40
2018-06-09T18:25:30.685Z,25.40
2018-06-09T18:28:00.967Z,25.30
2018-06-09T18:30:31.100Z,25.20
2018-06-09T18:33:01.306Z,25.10
2018-06-09T18:35:31.491Z,25.00
2018-06-09T18:38:01.762Z,24.90
2018-06-09T18:40:31.924Z,24.90
2018-06-09T18:43:02.220Z,24.80
2018-06-09T18:45:32.354Z,24.70
2018-06-09T18:48:02.614Z,24.60
2018-06-09T18:50:32.857Z,24.50
2018-06-09T18:53:03.219Z,24.40
2018-06-09T18:55:33.374Z,24.40
2018-06-09T18:58:03.698Z,24.30
2018-06-09T19:00:33.855Z,24.30
2018-06-09T19:03:04.141Z,24.20
2018-06-09T19:05:34.283Z,24.10
2018-06-09T19:08:04.565Z,24.10
2018-06-09T19:10:34.859Z,24.00
2018-06-09T19:13:05.046Z,24.00
2018-06-09T19:15:35.342Z,23.90
2018-06-09T19:18:05.515Z,23.80
2018-06-09T19:20:35.941Z,23.80
2018-06-09T19:23:06.104Z,23.60
2018-06-09T19:25:36.373Z,23.60
2018-06-09T19:28:06.654Z,23.50
2018-06-09T19:30:36.935Z,23.40
2018-06-09T19:33:07.095Z,23.40
2018-06-09T19:35:37.346Z,23.40
2018-06-09T19:38:07.500Z,23.30
2018-06-09T19:40:37.793Z,23.30
2018-06-09T19:43:07.920Z,23.20
2018-06-09T19:45:38.239Z,23.10
2018-06-09T19:48:08.430Z,23.00
2018-06-09T19:50:38.702Z,22.90
2018-06-09T19:53:08.976Z,22.80
2018-06-09T19:55:39.162Z,22.80
2018-06-09T19:58:09.959Z,22.70
2018-06-09T20:00:40.100Z,22.80
2018-06-09T20:03:10.360Z,22.70
2018-06-09T20:05:41.417Z,22.70
2018-06-09T20:08:11.723Z,22.70
2018-06-09T20:10:41.870Z,22.60
2018-06-09T20:13:12.168Z,22.50
2018-06-09T20:15:42.354Z,22.50
2018-06-09T20:18:12.643Z,22.50
2018-06-09T20:20:42.946Z,22.40
2018-06-09T20:23:13.229Z,22.40
2018-06-09T20:25:43.390Z,22.40
2018-06-09T20:28:13.668Z,22.40
2018-06-09T20:30:43.859Z,22.30
2018-06-09T20:33:14.178Z,22.30
2018-06-09T20:35:44.348Z,22.30
2018-06-09T20:38:14.628Z,22.30
2018-06-09T20:40:44.878Z,22.20
2018-06-09T20:43:15.058Z,22.20
2018-06-09T20:45:45.355Z,22.20
2018-06-09T20:48:15.515Z,22.30
2018-06-09T20:50:45.805Z,22.20
2018-06-09T20:53:15.983Z,22.20
2018-06-09T20:55:46.223Z,22.10
2018-06-09T20:58:16.401Z,22.10
2018-06-09T21:00:46.667Z,22.10
2018-06-09T21:03:16.855Z,22.10
2018-06-09T21:05:47.170Z,22.00
2018-06-09T21:08:17.254Z,22.00
2018-06-09T21:10:47.533Z,22.10
2018-06-09T21:13:17.799Z,22.10
2018-06-09T21:15:48.008Z,22.00
2018-06-09T21:18:18.159Z,22.10
2018-06-09T21:20:48.621Z,22.00
2018-06-09T21:23:18.831Z,21.90
2018-06-09T21:25:48.983Z,21.90
2018-06-09T21:28:25.262Z,21.80
2018-06-09T21:31:00.535Z,21.90
2018-06-09T21:33:52.837Z,21.90
2018-06-09T21:36:30.194Z,21.80
2018-06-09T21:39:00.340Z,21.70
2018-06-09T21:41:35.851Z,21.70
2018-06-09T21:44:11.251Z,21.70
2018-06-09T21:46:48.003Z,21.60
2018-06-09T21:49:18.455Z,21.60
2018-06-09T21:51:48.735Z,21.50
2018-06-09T21:54:19.016Z,21.40
2018-06-09T21:56:49.679Z,21.30
2018-06-09T21:59:19.832Z,21.30
2018-06-09T22:01:50.168Z,21.20
2018-06-09T22:04:20.302Z,21.20
2018-06-09T22:06:50.562Z,21.10
2018-06-09T22:09:20.820Z,21.20
2018-06-09T22:11:50.959Z,21.20
2018-06-09T22:14:21.283Z,21.20
2018-06-09T22:16:51.491Z,21.30
2018-06-09T22:19:21.890Z,21.30
2018-06-09T22:21:52.138Z,21.40
2018-06-09T22:24:22.454Z,21.40
2018-06-09T22:26:52.616Z,21.50
2018-06-09T22:29:22.878Z,21.40
2018-06-09T22:31:53.034Z,21.50
2018-06-09T22:34:23.288Z,21.40
2018-06-09T22:36:53.464Z,21.50
2018-06-09T22:39:23.789Z,21.50
2018-06-09T22:41:53.927Z,21.50
2018-06-09T22:44:24.200Z,21.50
2018-06-09T22:46:54.398Z,21.50
2018-06-09T22:49:24.586Z,21.50
2018-06-09T22:51:54.842Z,21.50
2018-06-09T22:54:25.047Z,21.50
2018-06-09T22:56:55.319Z,21.50
2018-06-09T22:59:25.489Z,21.40
2018-06-09T23:01:55.763Z,21.40
2018-06-09T23:04:25.919Z,21.40
2018-06-09T23:06:56.219Z,21.40
2018-06-09T23:09:26.391Z,21.40
2018-06-09T23:11:56.714Z,21.40
2018-06-09T23:14:26.866Z,21.40
2018-06-09T23:16:57.106Z,21.30
2018-06-09T23:19:27.257Z,21.30
2018-06-09T23:21:57.605Z,21.30
2018-06-09T23:24:27.774Z,21.20
2018-06-09T23:26:58.105Z,21.10
2018-06-09T23:29:28.264Z,21.10
2018-06-09T23:31:58.525Z,21.10
2018-06-09T23:34:28.785Z,21.00
2018-06-09T23:36:58.929Z,21.00
2018-06-09T23:39:29.193Z,20.90
2018-06-09T23:41:59.374Z,20.90
2018-06-09T23:44:29.591Z,20.80
2018-06-09T23:46:59.719Z,20.80
2018-06-09T23:49:29.988Z,20.80
2018-06-09T23:52:00.137Z,20.70
2018-06-09T23:54:30.471Z,20.60
2018-06-09T23:57:00.616Z,20.50
2018-06-09T23:59:30.888Z,20.50
